Time;durP1;ratioP1;P1;durP2;ratioP2;P2;SDS_P1;SDS_P2;PMS_P1;PMS_P2;Temp;Humidity;BMP_temperature;BMP_pressure;BME280_temperature;BME280_humidity;BME280_pressure;Samples;Min_cycle;Max_cycle;Signal;HPM_P1;HPM_P2
2023/05/18 00:01:16;;;;;;;18.42;15.20;;;;;;;;;;4974485;28;20090;-77
2023/05/18 00:03:42;;;;;;;13.85;12.48;;;;;;;;;;4977940;28;20069;-77
2023/05/18 00:06:08;;;;;;;14.20;11.27;;;;;;;;;;4970509;28;20034;-76
2023/05/18 00:08:34;;;;;;;12.60;11.45;;;;;;;;;;4971782;28;20042;-76
2023/05/18 00:11:00;;;;;;;21.70;17.23;;;;;;;;;;4974937;28;20057;-76
2023/05/18 00:13:25;;;;;;;18.13;15.45;;;;;;;;;;4965055;28;20173;-77
2023/05/18 00:15:51;;;;;;;22.10;18.30;;;;;;;;;;4975746;28;20503;-76
2023/05/18 00:18:16;;;;;;;27.95;20.50;;;;;;;;;;4963391;28;20022;-76
2023/05/18 00:20:42;;;;;;;21.45;19.15;;;;;;;;;;4976600;28;20018;-74
2023/05/18 00:23:09;;;;;;;20.17;18.00;;;;;;;;;;4963175;28;20392;-74
2023/05/18 00:25:35;;;;;;;17.20;15.38;;;;;;;;;;4974940;28;20034;-75
2023/05/18 00:28:00;;;;;;;17.35;15.57;;;;;;;;;;4974171;28;20327;-75
2023/05/18 00:30:25;;;;;;;18.70;16.60;;;;;;;;;;4974458;28;20018;-75
2023/05/18 00:32:51;;;;;;;17.63;15.55;;;;;;;;;;4963779;28;20113;-75
2023/05/18 00:35:16;;;;;;;14.52;13.07;;;;;;;;;;4972846;28;20446;-76
2023/05/18 00:37:41;;;;;;;14.65;13.15;;;;;;;;;;4976670;28;20014;-75
2023/05/18 00:40:07;;;;;;;18.17;15.65;;;;;;;;;;4974981;28;20562;-77
2023/05/18 00:42:33;;;;;;;15.77;14.27;;;;;;;;;;4972893;28;20364;-76
2023/05/18 00:44:58;;;;;;;19.67;16.17;;;;;;;;;;4974071;28;20087;-78
2023/05/18 00:47:24;;;;;;;21.80;18.48;;;;;;;;;;4965236;28;20026;-77
2023/05/18 00:49:49;;;;;;;17.73;13.68;;;;;;;;;;4975092;28;20121;-77
2023/05/18 00:52:14;;;;;;;15.65;12.93;;;;;;;;;;4968775;28;20034;-77
2023/05/18 00:54:40;;;;;;;15.80;13.63;;;;;;;;;;4970714;28;20029;-75
2023/05/18 00:57:06;;;;;;;31.23;22.98;;;;;;;;;;4974129;28;20144;-76
2023/05/18 00:59:31;;;;;;;37.75;28.00;;;;;;;;;;4975016;28;20097;-76
2023/05/18 01:01:57;;;;;;;44.60;34.13;;;;;;;;;;4965927;28;20030;-76
2023/05/18 01:04:23;;;;;;;18.33;16.15;;;;;;;;;;4972550;28;20038;-76
2023/05/18 01:06:49;;;;;;;17.83;15.02;;;;;;;;;;4976989;28;20360;-77
2023/05/18 01:09:15;;;;;;;18.15;14.80;;;;;;;;;;4973429;28;20031;-76
2023/05/18 01:11:40;;;;;;;26.48;19.40;;;;;;;;;;4972019;28;20096;-77
2023/05/18 01:14:12;;;;;;;27.60;20.85;;;;;;;;;;4967697;28;20057;-76
2023/05/18 01:16:58;;;;;;;23.85;18.02;;;;;;;;;;4966033;28;20024;-75
2023/05/18 01:19:36;;;;;;;24.13;18.77;;;;;;;;;;4973024;28;20038;-76
2023/05/18 01:22:12;;;;;;;17.33;15.52;;;;;;;;;;4974585;28;20446;-77
2023/05/18 01:25:03;;;;;;;22.73;16.98;;;;;;;;;;4973457;28;20048;-78
2023/05/18 01:27:36;;;;;;;15.82;14.23;;;;;;;;;;4969130;28;20042;-75
2023/05/18 01:30:02;;;;;;;13.45;12.15;;;;;;;;;;4973334;28;20468;-76
2023/05/18 01:32:27;;;;;;;14.65;13.00;;;;;;;;;;4966183;28;20026;-76
2023/05/18 01:34:52;;;;;;;12.93;11.63;;;;;;;;;;4970693;28;20030;-77
2023/05/18 01:37:18;;;;;;;12.77;11.50;;;;;;;;;;4962566;28;20026;-76
2023/05/18 01:39:43;;;;;;;13.10;11.60;;;;;;;;;;4970777;28;20050;-79
2023/05/18 01:42:13;;;;;;;12.48;11.25;;;;;;;;;;4976580;28;20058;-76
2023/05/18 01:44:38;;;;;;;;;;;;;;;;;;4964835;28;20064;-77
2023/05/18 01:47:11;;;;;;;12.23;11.00;;;;;;;;;;4970517;28;20034;-76
2023/05/18 01:49:36;;;;;;;12.30;11.00;;;;;;;;;;4971414;28;20030;-75
2023/05/18 01:52:15;;;;;;;15.50;11.93;;;;;;;;;;4965762;28;21195;-77
2023/05/18 01:54:43;;;;;;;12.75;11.05;;;;;;;;;;4969508;28;20031;-76
2023/05/18 01:57:08;;;;;;;12.52;11.32;;;;;;;;;;4970219;28;20517;-77
2023/05/18 01:59:35;;;;;;;13.13;11.18;;;;;;;;;;4964229;28;20035;-78
2023/05/18 02:02:00;;;;;;;12.77;11.30;;;;;;;;;;4976667;28;20034;-78
2023/05/18 02:04:26;;;;;;;14.70;11.88;;;;;;;;;;4973865;28;20461;-76
2023/05/18 02:06:53;;;;;;;12.90;11.63;;;;;;;;;;4961979;28;20151;-78
2023/05/18 02:09:19;;;;;;;14.73;10.70;;;;;;;;;;4971533;28;20092;-77
2023/05/18 02:11:45;;;;;;;12.30;10.98;;;;;;;;;;4974801;28;20026;-76
2023/05/18 02:14:11;;;;;;;11.85;10.75;;;;;;;;;;4974508;28;20038;-76
2023/05/18 02:16:36;;;;;;;15.02;11.68;;;;;;;;;;4973006;28;20027;-78
2023/05/18 02:19:02;;;;;;;13.40;10.75;;;;;;;;;;4963935;28;20030;-75
2023/05/18 02:21:28;;;;;;;12.95;11.70;;;;;;;;;;4973203;28;20042;-77
2023/05/18 02:23:59;;;;;;;12.73;11.52;;;;;;;;;;4975605;28;20027;-78
2023/05/18 02:26:25;;;;;;;12.15;11.05;;;;;;;;;;4973900;28;20091;-78
2023/05/18 02:28:50;;;;;;;12.82;10.43;;;;;;;;;;4972392;28;20432;-77
2023/05/18 02:31:16;;;;;;;13.38;11.57;;;;;;;;;;4972865;28;20069;-77
2023/05/18 02:33:42;;;;;;;13.57;11.35;;;;;;;;;;4973887;28;20091;-78
2023/05/18 02:36:11;;;;;;;12.50;11.30;;;;;;;;;;4975840;28;20505;-78
2023/05/18 02:38:42;;;;;;;12.68;11.20;;;;;;;;;;4961722;28;20540;-77
2023/05/18 02:41:08;;;;;;;13.63;10.30;;;;;;;;;;4955581;28;20027;-77
2023/05/18 02:43:33;;;;;;;12.10;10.90;;;;;;;;;;4959496;28;20030;-78
2023/05/18 02:45:59;;;;;;;10.88;9.90;;;;;;;;;;4960544;28;20102;-78
2023/05/18 02:48:25;;;;;;;11.50;10.38;;;;;;;;;;4959912;28;20100;-76
2023/05/18 02:50:51;;;;;;;11.68;10.25;;;;;;;;;;4960005;28;20434;-77
2023/05/18 02:53:16;;;;;;;11.70;10.07;;;;;;;;;;4973549;28;20030;-76
2023/05/18 02:55:42;;;;;;;10.45;8.82;;;;;;;;;;4964202;28;20441;-77
2023/05/18 02:58:08;;;;;;;11.18;9.13;;;;;;;;;;4947120;28;20615;-76
2023/05/18 03:00:33;;;;;;;9.55;8.52;;;;;;;;;;4952778;28;20874;-77
2023/05/18 03:03:03;;;;;;;9.93;9.02;;;;;;;;;;4950085;28;20034;-76
2023/05/18 03:05:33;;;;;;;9.82;8.82;;;;;;;;;;4953184;28;20464;-77
2023/05/18 03:08:01;;;;;;;10.15;9.15;;;;;;;;;;4951368;28;20031;-76
2023/05/18 03:10:26;;;;;;;9.98;9.07;;;;;;;;;;4949928;28;20399;-77
2023/05/18 03:12:51;;;;;;;11.13;9.98;;;;;;;;;;4952176;28;20026;-77
2023/05/18 03:15:17;;;;;;;9.93;9.13;;;;;;;;;;4951870;28;20038;-76
2023/05/18 03:17:42;;;;;;;10.60;9.43;;;;;;;;;;4950688;28;20120;-75
2023/05/18 03:20:10;;;;;;;10.63;9.60;;;;;;;;;;4947989;28;20038;-77
2023/05/18 03:22:41;;;;;;;11.52;9.98;;;;;;;;;;4948673;28;20027;-76
2023/05/18 03:25:07;;;;;;;10.85;9.80;;;;;;;;;;4951742;28;20038;-77
2023/05/18 03:27:32;;;;;;;11.00;10.02;;;;;;;;;;4957405;28;20019;-77
2023/05/18 03:29:58;;;;;;;10.13;9.20;;;;;;;;;;4978247;28;20027;-77
2023/05/18 03:32:30;;;;;;;11.52;10.43;;;;;;;;;;4976103;28;20034;-78
2023/05/18 03:34:56;;;;;;;10.93;9.60;;;;;;;;;;4973144;28;20030;-77
2023/05/18 03:37:21;;;;;;;10.30;9.32;;;;;;;;;;4963833;28;20042;-79
2023/05/18 03:39:46;;;;;;;11.32;9.43;;;;;;;;;;4967507;28;20435;-77
2023/05/18 03:42:12;;;;;;;11.10;10.05;;;;;;;;;;4970833;28;20449;-78
2023/05/18 03:44:37;;;;;;;11.25;10.13;;;;;;;;;;4976462;28;20135;-77
2023/05/18 03:47:03;;;;;;;10.02;9.13;;;;;;;;;;4976481;28;20353;-79
2023/05/18 03:49:30;;;;;;;12.25;9.43;;;;;;;;;;4975128;28;20091;-77
2023/05/18 03:51:56;;;;;;;10.38;9.38;;;;;;;;;;4975698;28;20403;-77
2023/05/18 03:54:21;;;;;;;11.57;10.38;;;;;;;;;;4977634;28;20038;-77
2023/05/18 03:56:47;;;;;;;11.32;9.60;;;;;;;;;;4977920;28;20552;-77
2023/05/18 03:59:12;;;;;;;12.40;11.20;;;;;;;;;;4975016;28;20087;-77
2023/05/18 04:01:40;;;;;;;11.88;10.68;;;;;;;;;;4975534;28;20026;-77
2023/05/18 04:04:06;;;;;;;13.25;9.40;;;;;;;;;;4963407;28;20030;-78
2023/05/18 04:06:34;;;;;;;9.35;8.38;;;;;;;;;;4965750;28;20029;-76
2023/05/18 04:09:03;;;;;;;9.60;8.70;;;;;;;;;;4972715;28;20026;-77
2023/05/18 04:11:29;;;;;;;8.70;7.90;;;;;;;;;;4953084;28;20027;-78
2023/05/18 04:13:56;;;;;;;9.52;8.65;;;;;;;;;;4952336;28;20027;-76
2023/05/18 04:16:22;;;;;;;9.40;8.32;;;;;;;;;;4971444;28;20031;-77
2023/05/18 04:18:47;;;;;;;9.10;8.32;;;;;;;;;;4962927;28;20034;-76
2023/05/18 04:21:12;;;;;;;10.30;9.32;;;;;;;;;;4975099;28;20037;-78
2023/05/18 04:23:38;;;;;;;10.90;9.80;;;;;;;;;;4977051;28;20042;-78
2023/05/18 04:26:04;;;;;;;14.90;12.25;;;;;;;;;;4977241;28;20034;-77
2023/05/18 04:28:30;;;;;;;16.13;12.55;;;;;;;;;;4973962;28;20042;-77
2023/05/18 04:30:55;;;;;;;17.20;13.18;;;;;;;;;;4975255;28;20364;-77
2023/05/18 04:33:20;;;;;;;16.77;12.93;;;;;;;;;;4974457;28;20117;-77
2023/05/18 04:35:46;;;;;;;13.70;11.52;;;;;;;;;;4968135;28;20030;-77
2023/05/18 04:38:11;;;;;;;12.82;11.48;;;;;;;;;;4973116;28;20018;-78
2023/05/18 04:40:41;;;;;;;12.40;11.20;;;;;;;;;;4966235;28;20161;-76
2023/05/18 04:43:07;;;;;;;;;;;;;;;;;;4966568;28;20046;-78
2023/05/18 04:45:38;;;;;;;11.48;10.38;;;;;;;;;;4964353;28;20232;-78
2023/05/18 04:48:04;;;;;;;12.05;10.75;;;;;;;;;;4958863;28;20029;-78
2023/05/18 04:50:29;;;;;;;14.43;12.63;;;;;;;;;;4959488;28;20392;-77
2023/05/18 04:52:56;;;;;;;14.02;12.63;;;;;;;;;;4971801;28;20019;-78
2023/05/18 04:55:24;;;;;;;15.57;12.05;;;;;;;;;;4975084;28;21192;-75
2023/05/18 04:57:52;;;;;;;13.07;11.75;;;;;;;;;;4975599;28;20094;-77
2023/05/18 05:00:18;;;;;;;13.70;12.38;;;;;;;;;;4975455;28;20415;-75
2023/05/18 05:02:43;;;;;;;14.05;12.70;;;;;;;;;;4976322;28;20054;-78
2023/05/18 05:05:09;;;;;;;15.18;13.20;;;;;;;;;;4972984;28;20487;-78
2023/05/18 05:07:34;;;;;;;14.68;13.15;;;;;;;;;;4976357;28;20023;-77
2023/05/18 05:09:59;;;;;;;13.63;12.35;;;;;;;;;;4976749;28;20098;-78
2023/05/18 05:12:25;;;;;;;14.35;12.95;;;;;;;;;;4975345;28;20350;-77
2023/05/18 05:14:50;;;;;;;14.77;12.02;;;;;;;;;;4974426;28;20073;-76
2023/05/18 05:17:16;;;;;;;13.45;12.25;;;;;;;;;;4977232;28;20030;-76
2023/05/18 05:19:41;;;;;;;14.15;12.63;;;;;;;;;;4971970;28;20041;-76
2023/05/18 05:22:06;;;;;;;14.07;12.48;;;;;;;;;;4977901;28;20487;-77
2023/05/18 05:24:32;;;;;;;13.88;12.48;;;;;;;;;;4970550;28;20034;-76
2023/05/18 05:26:57;;;;;;;14.25;12.70;;;;;;;;;;4968607;28;20056;-76
2023/05/18 05:29:25;;;;;;;13.93;12.18;;;;;;;;;;4975602;28;20034;-76
2023/05/18 05:31:50;;;;;;;13.60;11.93;;;;;;;;;;4974226;28;20453;-76
2023/05/18 05:34:16;;;;;;;13.02;11.73;;;;;;;;;;4974028;28;20030;-77
2023/05/18 05:36:41;;;;;;;12.07;10.68;;;;;;;;;;4975519;28;20029;-75
2023/05/18 05:39:06;;;;;;;12.02;10.82;;;;;;;;;;4974852;28;20046;-76
2023/05/18 05:41:32;;;;;;;11.65;10.52;;;;;;;;;;4972348;28;20058;-74
2023/05/18 05:43:57;;;;;;;11.52;10.52;;;;;;;;;;4966611;28;20058;-75
2023/05/18 05:46:23;;;;;;;12.15;11.05;;;;;;;;;;4953041;28;20517;-74
2023/05/18 05:48:48;;;;;;;13.95;9.93;;;;;;;;;;4960696;28;20464;-76
2023/05/18 05:51:13;;;;;;;10.88;9.77;;;;;;;;;;4966085;28;20035;-77
2023/05/18 05:53:39;;;;;;;10.70;9.70;;;;;;;;;;4956176;28;20035;-77
2023/05/18 05:56:06;;;;;;;11.52;10.55;;;;;;;;;;4955526;28;20040;-76
2023/05/18 05:58:32;;;;;;;12.50;11.10;;;;;;;;;;4986358;28;20038;-76
2023/05/18 06:00:57;;;;;;;11.52;10.32;;;;;;;;;;4970724;28;20026;-76
2023/05/18 06:03:22;;;;;;;10.40;9.50;;;;;;;;;;4972515;28;20453;-76
2023/05/18 06:05:48;;;;;;;10.27;9.27;;;;;;;;;;4970749;28;20078;-75
2023/05/18 06:08:14;;;;;;;10.85;9.35;;;;;;;;;;4972275;28;20030;-75
2023/05/18 06:10:40;;;;;;;10.05;9.13;;;;;;;;;;4970267;28;20105;-78
2023/05/18 06:13:05;;;;;;;10.68;9.57;;;;;;;;;;4974187;28;20159;-77
2023/05/18 06:15:31;;;;;;;11.13;9.10;;;;;;;;;;4970282;28;20037;-76
2023/05/18 06:17:57;;;;;;;9.88;8.93;;;;;;;;;;4974863;28;20145;-75
2023/05/18 06:20:22;;;;;;;9.43;8.60;;;;;;;;;;4969460;28;20026;-74
2023/05/18 06:22:47;;;;;;;10.32;8.50;;;;;;;;;;4971519;28;20022;-75
2023/05/18 06:25:13;;;;;;;9.85;8.40;;;;;;;;;;4971068;28;20031;-77
2023/05/18 06:27:38;;;;;;;9.52;8.52;;;;;;;;;;4970562;28;20118;-75
2023/05/18 06:30:04;;;;;;;8.73;7.93;;;;;;;;;;4972605;28;20042;-76
2023/05/18 06:32:29;;;;;;;8.25;7.65;;;;;;;;;;4974137;28;20282;-75
2023/05/18 06:34:55;;;;;;;9.07;8.20;;;;;;;;;;4972310;28;20351;-75
2023/05/18 06:37:20;;;;;;;9.70;8.73;;;;;;;;;;4972129;28;20030;-78
2023/05/18 06:39:46;;;;;;;9.07;7.97;;;;;;;;;;4971848;28;20024;-75
2023/05/18 06:42:11;;;;;;;9.25;8.38;;;;;;;;;;4971886;28;20065;-74
2023/05/18 06:44:37;;;;;;;9.77;8.73;;;;;;;;;;4972955;28;20080;-79
2023/05/18 06:47:02;;;;;;;7.90;7.20;;;;;;;;;;4969292;28;20365;-75
2023/05/18 06:49:27;;;;;;;9.27;7.90;;;;;;;;;;4974521;28;20023;-77
2023/05/18 06:51:53;;;;;;;8.45;7.63;;;;;;;;;;4970898;28;20045;-75
2023/05/18 06:54:18;;;;;;;10.05;7.50;;;;;;;;;;4970271;28;20067;-75
2023/05/18 06:56:43;;;;;;;9.15;7.70;;;;;;;;;;4974302;28;20429;-75
2023/05/18 06:59:09;;;;;;;9.75;8.68;;;;;;;;;;4975193;28;20034;-74
2023/05/18 07:01:34;;;;;;;10.00;9.00;;;;;;;;;;4972823;28;20119;-75
2023/05/18 07:04:01;;;;;;;8.73;7.93;;;;;;;;;;4972892;28;20149;-75
2023/05/18 07:06:26;;;;;;;8.73;7.93;;;;;;;;;;4974762;28;20038;-75
2023/05/18 07:08:52;;;;;;;8.25;7.45;;;;;;;;;;4970370;28;20018;-76
2023/05/18 07:11:17;;;;;;;8.45;7.50;;;;;;;;;;4973752;28;20357;-77
2023/05/18 07:13:42;;;;;;;9.50;7.43;;;;;;;;;;4975199;28;20078;-75
2023/05/18 07:16:08;;;;;;;9.68;8.00;;;;;;;;;;4974386;28;20038;-75
2023/05/18 07:18:33;;;;;;;8.63;7.70;;;;;;;;;;4973511;28;20030;-75
2023/05/18 07:20:59;;;;;;;9.77;7.63;;;;;;;;;;4975558;28;20109;-75
2023/05/18 07:23:24;;;;;;;10.82;8.00;;;;;;;;;;4973504;28;20091;-75
2023/05/18 07:25:50;;;;;;;12.27;8.32;;;;;;;;;;4973108;28;20037;-75
2023/05/18 07:28:15;;;;;;;11.82;6.88;;;;;;;;;;4975989;28;20042;-76
2023/05/18 07:30:41;;;;;;;7.43;6.72;;;;;;;;;;4972180;28;20437;-76
2023/05/18 07:33:06;;;;;;;8.27;7.03;;;;;;;;;;4974676;28;20038;-75
2023/05/18 07:35:32;;;;;;;11.23;7.70;;;;;;;;;;4972723;28;20417;-77
2023/05/18 07:37:57;;;;;;;7.05;6.35;;;;;;;;;;4973333;28;20475;-75
2023/05/18 07:40:22;;;;;;;7.45;6.72;;;;;;;;;;4973088;28;20443;-75
2023/05/18 07:42:48;;;;;;;7.75;7.05;;;;;;;;;;4974087;28;20626;-74
2023/05/18 07:45:13;;;;;;;11.05;7.40;;;;;;;;;;4974753;28;20085;-74
2023/05/18 07:47:39;;;;;;;8.00;7.22;;;;;;;;;;4972365;28;20030;-74
2023/05/18 07:50:05;;;;;;;8.35;6.35;;;;;;;;;;4967413;28;20034;-73
2023/05/18 07:52:31;;;;;;;8.38;7.30;;;;;;;;;;4973290;28;20099;-76
2023/05/18 07:54:57;;;;;;;8.23;7.43;;;;;;;;;;4974602;28;20437;-77
2023/05/18 07:57:22;;;;;;;7.43;6.68;;;;;;;;;;4973294;28;20027;-75
2023/05/18 07:59:47;;;;;;;7.57;6.75;;;;;;;;;;4975289;28;20029;-77
2023/05/18 08:02:15;;;;;;;9.27;6.90;;;;;;;;;;4974305;28;20022;-75
2023/05/18 08:04:40;;;;;;;8.32;7.03;;;;;;;;;;4970166;28;20031;-76
2023/05/18 08:07:06;;;;;;;7.22;6.47;;;;;;;;;;4972832;28;20034;-77
2023/05/18 08:09:31;;;;;;;7.75;6.97;;;;;;;;;;4971487;28;20061;-75
2023/05/18 08:11:57;;;;;;;6.80;6.20;;;;;;;;;;4972538;28;20119;-75
2023/05/18 08:14:22;;;;;;;7.55;6.32;;;;;;;;;;4973713;28;20153;-78
2023/05/18 08:16:47;;;;;;;8.43;6.13;;;;;;;;;;4975612;28;20029;-76
2023/05/18 08:19:13;;;;;;;10.13;5.57;;;;;;;;;;4975287;28;20163;-75
2023/05/18 08:21:38;;;;;;;6.30;5.30;;;;;;;;;;4977637;28;20314;-75
2023/05/18 08:24:03;;;;;;;5.97;5.32;;;;;;;;;;4976799;28;20063;-75
2023/05/18 08:26:29;;;;;;;7.82;5.93;;;;;;;;;;4975972;28;20049;-76
2023/05/18 08:28:54;;;;;;;6.28;5.72;;;;;;;;;;4973042;28;20429;-75
2023/05/18 08:31:20;;;;;;;5.63;5.03;;;;;;;;;;4974334;28;20030;-76
2023/05/18 08:33:46;;;;;;;7.68;6.00;;;;;;;;;;4975898;28;20593;-75
2023/05/18 08:36:11;;;;;;;7.90;6.00;;;;;;;;;;4974354;28;20035;-75
2023/05/18 08:38:36;;;;;;;7.18;6.05;;;;;;;;;;4977339;28;20038;-74
2023/05/18 08:41:19;;;;;;;7.03;6.38;;;;;;;;;;4977357;28;20449;-75
2023/05/18 08:43:47;;;;;;;6.50;5.90;;;;;;;;;;4975659;28;20393;-75
2023/05/18 08:46:18;;;;;;;8.82;5.90;;;;;;;;;;4975272;28;20023;-77
2023/05/18 08:48:47;;;;;;;6.63;5.90;;;;;;;;;;4973931;28;20042;-77
2023/05/18 08:51:13;;;;;;;7.15;5.60;;;;;;;;;;4975946;28;20151;-75
2023/05/18 08:53:39;;;;;;;10.45;6.03;;;;;;;;;;4975388;28;20449;-75
2023/05/18 08:56:05;;;;;;;6.00;5.35;;;;;;;;;;4976603;28;20085;-76
2023/05/18 08:58:34;;;;;;;7.20;5.20;;;;;;;;;;4973990;28;20050;-75
2023/05/18 09:01:00;;;;;;;9.55;4.80;;;;;;;;;;4976863;28;20026;-77
2023/05/18 09:03:25;;;;;;;7.28;5.20;;;;;;;;;;4973721;28;20456;-76
2023/05/18 09:05:51;;;;;;;6.82;5.15;;;;;;;;;;4976644;28;20457;-74
2023/05/18 09:08:17;;;;;;;6.97;5.20;;;;;;;;;;4974143;28;20138;-75
2023/05/18 09:10:43;;;;;;;8.68;5.22;;;;;;;;;;4977464;28;20034;-76
2023/05/18 09:13:08;;;;;;;6.85;5.15;;;;;;;;;;4977394;28;20096;-78
2023/05/18 09:15:37;;;;;;;5.90;5.30;;;;;;;;;;4971367;28;20034;-76
2023/05/18 09:18:02;;;;;;;6.07;5.20;;;;;;;;;;4976975;28;20069;-75
2023/05/18 09:20:28;;;;;;;7.40;5.05;;;;;;;;;;4975173;28;20034;-77
2023/05/18 09:22:54;;;;;;;8.27;5.05;;;;;;;;;;4974860;28;20041;-75
2023/05/18 09:25:20;;;;;;;6.18;4.53;;;;;;;;;;4974266;28;20034;-75
2023/05/18 09:27:46;;;;;;;7.22;4.95;;;;;;;;;;4975809;28;20045;-74
2023/05/18 09:30:13;;;;;;;11.65;8.30;;;;;;;;;;4974311;28;20039;-74
2023/05/18 09:32:38;;;;;;;7.20;5.68;;;;;;;;;;4975227;28;20033;-75
2023/05/18 09:35:05;;;;;;;10.77;5.68;;;;;;;;;;4975421;28;20034;-76
2023/05/18 09:37:31;;;;;;;5.88;4.72;;;;;;;;;;4973866;28;20026;-75
2023/05/18 09:40:00;;;;;;;5.60;4.75;;;;;;;;;;4974947;28;20034;-75
2023/05/18 09:42:43;;;;;;;4.47;4.07;;;;;;;;;;4975048;28;20103;-77
2023/05/18 09:45:09;;;;;;;6.05;5.03;;;;;;;;;;4974634;28;20066;-76
2023/05/18 09:47:34;;;;;;;8.35;4.90;;;;;;;;;;4969854;28;20518;-75
2023/05/18 09:50:00;;;;;;;6.85;4.57;;;;;;;;;;4974577;28;20054;-75
2023/05/18 09:52:25;;;;;;;7.60;5.35;;;;;;;;;;4974482;28;20449;-75
2023/05/18 09:55:03;;;;;;;5.47;4.65;;;;;;;;;;4972811;28;20337;-76
2023/05/18 09:57:28;;;;;;;5.25;3.90;;;;;;;;;;4971976;28;20019;-75
2023/05/18 09:59:54;;;;;;;6.30;4.38;;;;;;;;;;4976079;28;20445;-80
2023/05/18 10:02:23;;;;;;;4.57;4.18;;;;;;;;;;4974088;28;20347;-76
2023/05/18 10:04:49;;;;;;;8.65;3.92;;;;;;;;;;4972093;28;20031;-75
2023/05/18 10:07:15;;;;;;;8.02;4.43;;;;;;;;;;4973024;28;20096;-76
2023/05/18 10:09:42;;;;;;;5.25;4.75;;;;;;;;;;4974859;28;20046;-76
2023/05/18 10:12:11;;;;;;;7.25;5.25;;;;;;;;;;4974626;28;20541;-76
2023/05/18 10:14:37;;;;;;;6.55;4.63;;;;;;;;;;4974649;28;20032;-77
2023/05/18 10:17:03;;;;;;;7.45;4.80;;;;;;;;;;4975619;28;20038;-75
2023/05/18 10:19:29;;;;;;;9.73;5.40;;;;;;;;;;4976094;28;20439;-75
2023/05/18 10:21:56;;;;;;;5.95;5.03;;;;;;;;;;4975167;28;20022;-75
2023/05/18 10:24:22;;;;;;;6.90;4.85;;;;;;;;;;4972328;28;20026;-76
2023/05/18 10:26:48;;;;;;;6.75;4.82;;;;;;;;;;4974036;28;20502;-75
2023/05/18 10:29:14;;;;;;;5.97;4.43;;;;;;;;;;4974190;28;20034;-75
2023/05/18 10:31:40;;;;;;;5.47;4.50;;;;;;;;;;4975019;28;20022;-76
2023/05/18 10:34:07;;;;;;;3.97;3.67;;;;;;;;;;4974699;28;20034;-75
2023/05/18 10:36:34;;;;;;;12.10;4.95;;;;;;;;;;4974935;28;20031;-75
2023/05/18 10:39:01;;;;;;;8.32;4.97;;;;;;;;;;4971843;28;20059;-75
2023/05/18 10:41:28;;;;;;;6.32;4.85;;;;;;;;;;4973891;28;20057;-77
2023/05/18 10:43:53;;;;;;;7.30;4.50;;;;;;;;;;4972730;28;21099;-75
2023/05/18 10:46:25;;;;;;;5.95;4.38;;;;;;;;;;4972039;28;20030;-75
2023/05/18 10:48:51;;;;;;;8.63;4.95;;;;;;;;;;4972703;28;20030;-75
2023/05/18 10:51:17;;;;;;;6.60;5.00;;;;;;;;;;4970110;28;20022;-76
2023/05/18 10:53:46;;;;;;;6.05;4.47;;;;;;;;;;4970818;28;20033;-76
2023/05/18 10:56:12;;;;;;;5.53;4.30;;;;;;;;;;4973046;28;20123;-75
2023/05/18 10:58:38;;;;;;;9.93;4.55;;;;;;;;;;4972952;28;20027;-76
2023/05/18 11:01:05;;;;;;;5.85;4.85;;;;;;;;;;4975209;28;20431;-78
2023/05/18 11:03:31;;;;;;;6.75;4.18;;;;;;;;;;4972519;28;20156;-73
2023/05/18 11:06:07;;;;;;;4.97;3.80;;;;;;;;;;4969821;28;20035;-75
2023/05/18 11:08:33;;;;;;;4.53;3.50;;;;;;;;;;4969372;28;20441;-75
2023/05/18 11:11:00;;;;;;;5.78;3.92;;;;;;;;;;4973787;28;20026;-76
2023/05/18 11:13:27;;;;;;;7.32;4.38;;;;;;;;;;4974454;28;20045;-76
2023/05/18 11:15:52;;;;;;;4.95;3.78;;;;;;;;;;4974304;28;20075;-74
2023/05/18 11:18:18;;;;;;;4.32;3.60;;;;;;;;;;4974313;28;20130;-74
2023/05/18 11:20:47;;;;;;;7.43;4.18;;;;;;;;;;4975494;28;20018;-75
2023/05/18 11:23:19;;;;;;;6.13;4.28;;;;;;;;;;4970499;28;20115;-75
2023/05/18 11:25:47;;;;;;;6.28;3.90;;;;;;;;;;4973505;28;20801;-75
2023/05/18 11:28:12;;;;;;;6.85;4.35;;;;;;;;;;4973734;28;20193;-76
2023/05/18 11:30:40;;;;;;;6.25;4.55;;;;;;;;;;4972286;28;20426;-76
2023/05/18 11:33:09;;;;;;;6.65;4.57;;;;;;;;;;4972578;28;20109;-75
2023/05/18 11:35:53;;;;;;;8.50;4.75;;;;;;;;;;4972586;28;21004;-76
2023/05/18 11:38:18;;;;;;;5.40;4.40;;;;;;;;;;4974051;28;20026;-76
2023/05/18 11:40:47;;;;;;;5.15;4.25;;;;;;;;;;4974335;28;20535;-76
2023/05/18 11:43:22;;;;;;;7.15;4.60;;;;;;;;;;4973895;28;20636;-76
2023/05/18 11:45:54;;;;;;;4.70;4.28;;;;;;;;;;4975388;28;20072;-75
2023/05/18 11:48:20;;;;;;;3.90;3.60;;;;;;;;;;4972535;28;20054;-75
2023/05/18 11:50:45;;;;;;;6.82;4.88;;;;;;;;;;4974144;28;20027;-76
2023/05/18 11:53:14;;;;;;;6.38;4.47;;;;;;;;;;4979137;28;20648;-76
2023/05/18 11:55:40;;;;;;;5.90;4.43;;;;;;;;;;4979237;28;20342;-76
2023/05/18 11:58:06;;;;;;;8.18;4.80;;;;;;;;;;4977386;28;20619;-76
2023/05/18 12:00:31;;;;;;;6.93;4.20;;;;;;;;;;4975825;28;20925;-76
2023/05/18 12:02:59;;;;;;;8.02;3.83;;;;;;;;;;4976432;28;20027;-75
2023/05/18 12:05:29;;;;;;;7.43;4.60;;;;;;;;;;4977159;28;20418;-78
2023/05/18 12:07:54;;;;;;;;;;;;;;;;;;4976116;28;20491;-75
2023/05/18 12:10:19;;;;;;;7.60;5.00;;;;;;;;;;4966625;28;19918;-75
2023/05/18 12:12:50;;;;;;;8.38;6.20;;;;;;;;;;4975174;28;20038;-76
2023/05/18 12:15:20;;;;;;;5.45;4.95;;;;;;;;;;4978316;28;20054;-78
2023/05/18 12:17:45;;;;;;;6.85;4.53;;;;;;;;;;4975663;28;20122;-76
2023/05/18 12:20:11;;;;;;;6.68;6.00;;;;;;;;;;4975289;28;20425;-75
2023/05/18 12:22:41;;;;;;;8.18;5.53;;;;;;;;;;4960032;28;20022;-77
2023/05/18 12:25:06;;;;;;;;;;;;;;;;;;4969834;28;20042;-80
2023/05/18 12:27:37;;;;;;;6.70;4.70;;;;;;;;;;4962710;28;20264;-77
2023/05/18 12:30:03;;;;;;;7.78;4.63;;;;;;;;;;4960215;28;20136;-77
2023/05/18 12:32:29;;;;;;;8.35;4.78;;;;;;;;;;4961593;28;20030;-76
2023/05/18 12:34:54;;;;;;;5.85;4.10;;;;;;;;;;4961937;28;20027;-75
2023/05/18 12:37:23;;;;;;;7.50;4.63;;;;;;;;;;4962123;28;21236;-75
2023/05/18 12:39:52;;;;;;;6.20;4.65;;;;;;;;;;4960109;28;20364;-77
2023/05/18 12:42:18;;;;;;;6.95;4.50;;;;;;;;;;4960095;28;20099;-77
2023/05/18 12:44:44;;;;;;;6.43;4.38;;;;;;;;;;4960895;28;20449;-76
2023/05/18 12:47:10;;;;;;;6.40;3.50;;;;;;;;;;4960323;28;20031;-76
2023/05/18 12:49:37;;;;;;;5.75;4.25;;;;;;;;;;4961201;28;20037;-75
2023/05/18 12:52:10;;;;;;;6.88;4.80;;;;;;;;;;4961291;28;20430;-75
2023/05/18 12:54:35;;;;;;;8.02;4.85;;;;;;;;;;4960477;28;20038;-75
2023/05/18 12:57:04;;;;;;;6.72;4.82;;;;;;;;;;4961553;28;20667;-78
2023/05/18 12:59:30;;;;;;;6.43;4.20;;;;;;;;;;4957124;28;20034;-76
2023/05/18 13:01:57;;;;;;;4.60;4.18;;;;;;;;;;4959700;28;20038;-77
2023/05/18 13:04:22;;;;;;;12.05;4.35;;;;;;;;;;4958674;28;20022;-75
2023/05/18 13:06:48;;;;;;;5.10;4.43;;;;;;;;;;4960470;28;20075;-76
2023/05/18 13:09:14;;;;;;;7.43;4.30;;;;;;;;;;4960455;28;20014;-75
2023/05/18 13:11:40;;;;;;;6.38;4.78;;;;;;;;;;4960112;28;20101;-76
2023/05/18 13:14:11;;;;;;;6.50;4.78;;;;;;;;;;4959872;28;20117;-75
2023/05/18 13:16:37;;;;;;;6.53;3.88;;;;;;;;;;4961495;28;20026;-76
2023/05/18 13:19:04;;;;;;;4.80;3.90;;;;;;;;;;4957564;28;20369;-76
2023/05/18 13:21:29;;;;;;;4.60;3.78;;;;;;;;;;4977543;28;20119;-74
2023/05/18 13:23:55;;;;;;;4.38;3.97;;;;;;;;;;4953770;28;20538;-75
2023/05/18 13:26:21;;;;;;;8.10;5.60;;;;;;;;;;4976174;28;20062;-75
2023/05/18 13:28:48;;;;;;;14.85;10.98;;;;;;;;;;4973317;28;20709;-75
2023/05/18 13:31:13;;;;;;;7.75;5.90;;;;;;;;;;4975267;28;20045;-80
2023/05/18 13:33:39;;;;;;;9.30;8.10;;;;;;;;;;4965786;28;20434;-76
2023/05/18 13:36:04;;;;;;;8.30;6.65;;;;;;;;;;4971188;28;20030;-77
2023/05/18 13:38:34;;;;;;;5.93;4.97;;;;;;;;;;4963700;28;20038;-77
2023/05/18 13:40:59;;;;;;;;;;;;;;;;;;4959463;28;20050;-76
2023/05/18 13:43:24;;;;;;;4.50;4.10;;;;;;;;;;4969650;28;19945;-77
2023/05/18 13:45:50;;;;;;;5.80;4.22;;;;;;;;;;4975663;28;20445;-75
2023/05/18 13:48:15;;;;;;;7.82;4.72;;;;;;;;;;4975399;28;20058;-75
2023/05/18 13:50:40;;;;;;;7.13;5.68;;;;;;;;;;4977336;28;20030;-77
2023/05/18 13:53:06;;;;;;;6.75;5.97;;;;;;;;;;4974298;28;20038;-76
2023/05/18 13:55:32;;;;;;;11.80;8.57;;;;;;;;;;4975571;28;20026;-77
2023/05/18 13:57:58;;;;;;;15.15;11.05;;;;;;;;;;4975036;28;20117;-75
2023/05/18 14:00:24;;;;;;;9.68;7.47;;;;;;;;;;4973161;28;20037;-75
2023/05/18 14:02:51;;;;;;;6.93;5.75;;;;;;;;;;4971883;28;20408;-75
2023/05/18 14:05:17;;;;;;;7.63;6.45;;;;;;;;;;4971216;28;20032;-79
2023/05/18 14:07:43;;;;;;;6.03;5.13;;;;;;;;;;4957416;28;20037;-74
2023/05/18 14:10:10;;;;;;;7.00;4.63;;;;;;;;;;4960768;28;20047;-74
2023/05/18 14:12:35;;;;;;;7.57;3.55;;;;;;;;;;4959709;28;20026;-75
2023/05/18 14:15:01;;;;;;;4.68;4.20;;;;;;;;;;4959312;28;20065;-76
2023/05/18 14:17:28;;;;;;;4.85;3.85;;;;;;;;;;4959930;28;20034;-77
2023/05/18 14:19:54;;;;;;;3.63;3.33;;;;;;;;;;4972574;28;20034;-76
2023/05/18 14:22:20;;;;;;;6.40;3.67;;;;;;;;;;4974511;28;20035;-75
2023/05/18 14:24:46;;;;;;;5.20;3.70;;;;;;;;;;4970534;28;20066;-76
2023/05/18 14:27:13;;;;;;;7.03;3.90;;;;;;;;;;4974398;28;20452;-78
2023/05/18 14:29:38;;;;;;;4.10;3.67;;;;;;;;;;4960541;28;20030;-76